首页
METAR-TAF:

METAR-TAF

机场 :

北京首都国际机场

北京, 中华人民共和国

纬度: 39-56N, 经度: 116-17E, 海拔: 55米

当前天气观测

该预报发布于29分钟前的02:00 UTC
风速4节,风向多变
温度 27°C
湿度 70%
气压 1009 hPa
能见度10公里或以上
少量云层高于3300英尺

METAR: ZBAA 190200Z VRB02MPS 9999 FEW033 27/21 Q1009 NOSIG

时间: 10:29 (02:29 UTC)

预报

该预报发布于5小时和9分钟前的21:20 UTC
预报有效从19日的 00点(UTC)到 19日的 24点(UTC)
风速8节,风向北转东北
能見度: 3500
小雨, 轻雾

TAF: ZBAA 182120Z 1900/1924 02004MPS 3500 -RA BR NSC TX25/1907Z TN21/1921Z

超过4000个机场的气象观测和天气预报(METAR&TAF报告)。

可查询的气象台以黄色和红色小点在地图上表示。

将鼠标移到小点上方,可查看气象台名称。

然后点击查看天气观测和预报。

如需切换地图:点击带黑十字的绿色按钮放大地图;点击带横线的绿色按钮缩小地图;或者点击绿色箭头查看邻近地区的地图。


METAR-TAF: